Time;durP1;ratioP1;P1;durP2;ratioP2;P2;SDS_P1;SDS_P2;PMS_P1;PMS_P2;Temp;Humidity;BMP_temperature;BMP_pressure;BME280_temperature;BME280_humidity;BME280_pressure;Samples;Min_cycle;Max_cycle;Signal;HPM_P1;HPM_P2
2022/09/30 00:01:28;;;;;;;;;;;;;;;15.12;70.37;100135.03;4976832;28;119638;-73
2022/09/30 00:03:54;;;;;;;;;;;;;;;15.12;70.21;100143.31;4943100;28;120405;-73
2022/09/30 00:06:20;;;;;;;;;;;;;;;15.11;69.99;100147.31;4948539;28;119891;-73
2022/09/30 00:09:11;;;;;;;;;;;;;;;15.09;69.92;100144.31;4943508;28;121419;-73
2022/09/30 00:11:38;;;;;;;;;;;;;;;15.08;70.12;100142.03;4945677;28;120754;-73
2022/09/30 00:14:04;;;;;;;;;;;;;;;15.08;70.28;100142.03;4933547;28;119717;-74
2022/09/30 00:16:32;;;;;;;;;;;;;;;15.07;69.97;100143.28;4949811;28;119860;-73
2022/09/30 00:18:59;;;;;;;;;;;;;;;15.05;69.87;100146.56;4953342;28;120253;-73
2022/09/30 00:21:25;;;;;;;;;;;;;;;15.05;70.12;100143.78;4947956;28;119577;-74
2022/09/30 00:23:56;;;;;;;;;;;;;;;15.06;70.39;100142.53;4937507;28;119556;-74
2022/09/30 00:26:22;;;;;;;;;;;;;;;15.03;70.04;100144.28;4951434;28;120404;-73
2022/09/30 00:28:49;;;;;;;;;;;;;;;15.03;70.43;100152.56;4945002;28;119575;-73
2022/09/30 00:31:15;;;;;;;;;;;;;;;15.03;70.30;100147.03;4944188;28;119772;-73
2022/09/30 00:33:41;;;;;;;;;;;;;;;15.03;70.14;100149.81;4951568;28;119603;-74
2022/09/30 00:36:07;;;;;;;;;;;;;;;15.03;70.38;100151.81;4954698;28;119769;-73
2022/09/30 00:38:32;;;;;;;;;;;;;;;15.02;70.15;100155.81;4947579;28;120070;-74
2022/09/30 00:40:59;;;;;;;;;;;;;;;15.01;70.43;100159.84;4951806;28;119918;-74
2022/09/30 00:43:50;;;;;;;;;;;;;;;15.00;70.45;100155.56;4951186;28;120202;-73
2022/09/30 00:46:18;;;;;;;;;;;;;;;15.00;70.63;100155.56;4948178;28;119929;-74
2022/09/30 00:48:46;;;;;;;;;;;;;;;15.01;70.76;100160.59;4946888;28;119523;-74
2022/09/30 00:51:12;;;;;;;;;;;;;;;15.01;70.52;100165.34;4958288;28;119517;-74
2022/09/30 00:53:47;;;;;;;;;;;;;;;15.01;70.28;100159.84;4953478;28;119378;-74
2022/09/30 00:56:18;;;;;;;;;;;;;;;15.00;70.46;100152.81;4948812;28;119585;-74
2022/09/30 00:58:46;;;;;;;;;;;;;;;15.00;70.38;100147.28;4954532;28;119665;-73
2022/09/30 01:01:13;;;;;;;;;;;;;;;14.98;70.22;100155.31;4951363;28;119673;-74
2022/09/30 01:03:48;;;;;;;;;;;;;;;14.98;70.47;100149.78;4947332;28;119570;-73
2022/09/30 01:06:14;;;;;;;;;;;;;;;14.97;70.06;100151.03;4947715;28;119671;-73
2022/09/30 01:08:41;;;;;;;;;;;;;;;14.97;70.47;100149.03;4950550;28;119935;-73
2022/09/30 01:11:06;;;;;;;;;;;;;;;14.96;70.14;100146.75;4944618;28;121404;-73
2022/09/30 01:13:33;;;;;;;;;;;;;;;14.95;70.26;100151.53;4950703;28;119800;-73
2022/09/30 01:16:21;;;;;;;;;;;;;;;14.95;70.25;100159.06;4950972;28;119917;-73
2022/09/30 01:19:04;;;;;;;;;;;;;;;14.94;70.22;100154.78;4950702;28;121816;-73
2022/09/30 01:22:17;;;;;;;;;;;;;;;14.92;69.88;100155.28;4946729;28;119710;-73
2022/09/30 01:25:03;;;;;;;;;;;;;;;14.90;70.11;100155.00;4942930;28;119931;-73
2022/09/30 01:27:28;;;;;;;;;;;;;;;14.87;69.96;100161.50;4939828;28;120164;-74
2022/09/30 01:30:06;;;;;;;;;;;;;;;14.87;70.12;100160.75;4949183;28;119781;-73
2022/09/30 01:32:44;;;;;;;;;;;;;;;14.86;70.06;100154.47;4947599;28;121200;-73
2022/09/30 01:35:14;;;;;;;;;;;;;;;14.86;70.37;100153.72;4947836;28;120108;-73
2022/09/30 01:38:02;;;;;;;;;;;;;;;14.85;69.90;100152.94;4925009;28;120015;-73
2022/09/30 01:40:48;;;;;;;;;;;;;;;14.86;69.88;100154.47;4947428;28;119909;-73
2022/09/30 01:43:23;;;;;;;;;;;;;;;14.87;69.75;100161.50;4945502;28;119947;-73
2022/09/30 01:45:55;;;;;;;;;;;;;;;14.87;69.67;100164.25;4955183;28;119629;-73
2022/09/30 01:48:39;;;;;;;;;;;;;;;14.87;69.98;100160.75;4954903;28;119436;-73
2022/09/30 01:51:05;;;;;;;;;;;;;;;14.87;70.14;100169.03;4950218;28;119837;-73
2022/09/30 01:53:39;;;;;;;;;;;;;;;14.85;70.31;100169.50;4946255;28;119286;-73
2022/09/30 01:56:08;;;;;;;;;;;;;;;14.87;70.26;100174.53;4949094;28;119528;-74
2022/09/30 01:58:36;;;;;;;;;;;;;;;14.88;70.29;100168.53;4950485;28;119534;-74
2022/09/30 02:01:05;;;;;;;;;;;;;;;14.89;70.44;100174.81;4938510;28;119780;-74
2022/09/30 02:03:38;;;;;;;;;;;;;;;14.90;70.21;100176.31;4942071;28;119487;-73
2022/09/30 02:06:22;;;;;;;;;;;;;;;14.92;70.43;100184.91;4949562;28;119760;-73
2022/09/30 02:09:10;;;;;;;;;;;;;;;14.93;70.34;100186.41;4953478;28;119930;-73
2022/09/30 02:11:37;;;;;;;;;;;;;;;14.93;70.20;100175.38;4952625;28;119802;-73
2022/09/30 02:14:10;;;;;;;;;;;;;;;14.95;70.19;100167.34;4947630;28;120760;-74
2022/09/30 02:16:47;;;;;;;;;;;;;;;14.97;70.49;100168.34;4949658;28;119801;-74
2022/09/30 02:19:23;;;;;;;;;;;;;;;14.99;70.33;100176.16;4953718;28;119909;-74
2022/09/30 02:21:55;;;;;;;;;;;;;;;14.99;70.37;100179.66;4959816;28;120069;-73
2022/09/30 02:24:24;;;;;;;;;;;;;;;15.00;70.42;100169.38;4947741;28;119621;-73
2022/09/30 02:26:52;;;;;;;;;;;;;;;15.02;70.37;100186.19;4945760;28;119383;-73
2022/09/30 02:29:21;;;;;;;;;;;;;;;15.01;70.01;100182.69;4950615;28;120183;-74
2022/09/30 02:31:49;;;;;;;;;;;;;;;15.03;70.39;100190.47;4947874;28;119747;-74
2022/09/30 02:34:20;;;;;;;;;;;;;;;15.03;70.13;100185.72;4948992;28;120532;-73
2022/09/30 02:36:50;;;;;;;;;;;;;;;15.03;70.36;100184.94;4949100;28;120218;-74
2022/09/30 02:39:28;;;;;;;;;;;;;;;15.03;69.92;100182.19;4977020;28;120044;-73
2022/09/30 02:42:25;;;;;;;;;;;;;;;15.02;70.36;100189.72;4939102;28;119576;-73
2022/09/30 02:45:07;;;;;;;;;;;;;;;15.03;70.05;100190.47;4947811;28;120449;-73
2022/09/30 02:48:01;;;;;;;;;;;;;;;15.01;70.27;100177.16;4955896;28;119621;-73
2022/09/30 02:50:46;;;;;;;;;;;;;;;15.01;70.31;100192.97;4943730;28;119598;-73
2022/09/30 02:53:11;;;;;;;;;;;;;;;15.01;70.04;100198.50;4946736;28;119506;-74
2022/09/30 02:55:37;;;;;;;;;;;;;;;15.00;70.39;100197.75;4942702;28;120128;-74
2022/09/30 02:58:10;;;;;;;;;;;;;;;15.02;70.27;100200.78;4945361;28;120106;-74
2022/09/30 03:00:45;;;;;;;;;;;;;;;15.03;70.18;100201.53;4942032;28;119801;-74
2022/09/30 03:03:20;;;;;;;;;;;;;;;15.05;70.42;100204.56;4942392;28;120053;-74
2022/09/30 03:05:47;;;;;;;;;;;;;;;15.06;69.89;100206.06;4942011;28;120011;-74
2022/09/30 03:08:13;;;;;;;;;;;;;;;15.05;69.95;100210.81;4948153;28;121425;-74
2022/09/30 03:10:38;;;;;;;;;;;;;;;15.04;69.81;100214.84;4947978;28;119505;-73
2022/09/30 03:13:22;;;;;;;;;;;;;;;15.02;70.08;100209.06;4947559;28;119353;-73
2022/09/30 03:15:58;;;;;;;;;;;;;;;15.01;69.82;100210.31;4951341;28;119488;-74
2022/09/30 03:18:44;;;;;;;;;;;;;;;14.99;70.12;100223.84;4946592;28;119820;-73
2022/09/30 03:21:36;;;;;;;;;;;;;;;14.98;70.07;100218.81;4943132;28;119871;-74
2022/09/30 03:24:01;;;;;;;;;;;;;;;14.95;69.74;100217.81;4929129;28;120408;-73
2022/09/30 03:27:19;;;;;;;;;;;;;;;14.93;69.58;100214.03;4944949;28;119848;-73
2022/09/30 03:30:04;;;;;;;;;;;;;;;14.91;69.89;100219.28;4945714;28;119644;-73
2022/09/30 03:32:47;;;;;;;;;;;;;;;14.89;69.72;100224.50;4941769;28;120191;-74
2022/09/30 03:35:20;;;;;;;;;;;;;;;14.87;69.57;100227.00;4929771;28;120012;-74
2022/09/30 03:38:04;;;;;;;;;;;;;;;14.85;69.66;100240.56;4943385;28;120121;-73
2022/09/30 03:40:38;;;;;;;;;;;;;;;14.85;70.01;100240.56;4947855;28;124580;-73
2022/09/30 03:43:17;;;;;;;;;;;;;;;14.86;69.82;100253.09;4961969;28;120328;-73
2022/09/30 03:45:49;;;;;;;;;;;;;;;14.87;69.94;100254.63;4945404;28;120543;-73
2022/09/30 03:48:28;;;;;;;;;;;;;;;14.85;69.79;100257.88;4933866;28;119601;-73
2022/09/30 03:50:54;;;;;;;;;;;;;;;14.85;69.63;100257.13;4929125;28;119952;-74
2022/09/30 03:53:58;;;;;;;;;;;;;;;14.84;69.67;100261.13;4916451;28;120017;-73
2022/09/30 03:56:25;;;;;;;;;;;;;;;14.83;70.02;100268.66;4905414;28;120462;-74
2022/09/30 03:58:51;;;;;;;;;;;;;;;14.83;69.68;100267.91;4922451;28;120624;-73
2022/09/30 04:01:20;;;;;;;;;;;;;;;14.73;69.80;100256.28;4895138;28;119941;-73
2022/09/30 04:03:51;;;;;;;;;;;;;;;14.78;69.67;100258.31;4891043;28;119898;-73
2022/09/30 04:06:17;;;;;;;;;;;;;;;14.76;69.49;100263.59;4866434;28;121430;-73
2022/09/30 04:08:43;;;;;;;;;;;;;;;14.76;69.57;100265.59;4870918;28;119514;-74
2022/09/30 04:11:09;;;;;;;;;;;;;;;14.74;69.88;100269.59;4886973;28;120057;-74
2022/09/30 04:13:35;;;;;;;;;;;;;;;14.74;69.69;100274.34;4885786;28;120452;-73
2022/09/30 04:16:00;;;;;;;;;;;;;;;14.76;69.67;100276.63;4886997;28;119998;-73
2022/09/30 04:18:31;;;;;;;;;;;;;;;14.77;69.60;100284.41;4888115;28;119448;-73
2022/09/30 04:20:58;;;;;;;;;;;;;;;14.78;69.83;100283.19;4929072;28;120654;-74
2022/09/30 04:23:24;;;;;;;;;;;;;;;14.79;69.56;100287.44;4947829;28;119755;-74
2022/09/30 04:25:53;;;;;;;;;;;;;;;14.80;69.88;100283.44;4951731;28;119539;-74
2022/09/30 04:28:18;;;;;;;;;;;;;;;14.81;69.74;100284.94;4946609;28;119937;-74
2022/09/30 04:30:44;;;;;;;;;;;;;;;14.81;69.53;100284.19;4945553;28;119381;-74
2022/09/30 04:33:11;;;;;;;;;;;;;;;14.81;69.51;100290.47;4948117;28;119622;-74
2022/09/30 04:35:38;;;;;;;;;;;;;;;14.82;69.60;100280.19;4911218;28;119884;-74
2022/09/30 04:38:06;;;;;;;;;;;;;;;14.81;69.50;100282.19;4946351;28;120717;-74
2022/09/30 04:40:34;;;;;;;;;;;;;;;14.80;69.85;100283.44;4930147;28;121996;-73
2022/09/30 04:43:00;;;;;;;;;;;;;;;14.80;69.73;100282.69;4948452;28;119376;-73
2022/09/30 04:45:25;;;;;;;;;;;;;;;14.80;69.85;100279.91;4951829;28;119513;-73
2022/09/30 04:47:51;;;;;;;;;;;;;;;14.79;69.51;100292.22;4947989;28;119347;-73
2022/09/30 04:50:17;;;;;;;;;;;;;;;14.78;69.65;100288.69;4942058;28;119565;-73
2022/09/30 04:52:46;;;;;;;;;;;;;;;14.75;69.49;100292.44;4946184;28;119879;-74
2022/09/30 04:55:12;;;;;;;;;;;;;;;14.73;69.71;100295.69;4945651;28;119593;-73
2022/09/30 04:57:37;;;;;;;;;;;;;;;14.70;69.42;100293.91;4929897;28;119885;-73
2022/09/30 05:00:04;;;;;;;;;;;;;;;14.69;69.47;100295.16;4948306;28;119936;-73
2022/09/30 05:02:30;;;;;;;;;;;;;;;14.69;69.21;100297.16;4951368;28;119876;-74
2022/09/30 05:04:56;;;;;;;;;;;;;;;14.67;69.26;100303.16;4947212;28;119324;-73
2022/09/30 05:07:21;;;;;;;;;;;;;;;14.67;69.53;100316.22;4952041;28;119596;-74
2022/09/30 05:09:47;;;;;;;;;;;;;;;14.66;69.06;100311.91;4951765;28;119921;-73
2022/09/30 05:12:14;;;;;;;;;;;;;;;14.65;69.03;100311.16;4949207;28;120049;-73
2022/09/30 05:14:40;;;;;;;;;;;;;;;14.65;69.48;100322.19;4947938;28;120005;-74
2022/09/30 05:17:05;;;;;;;;;;;;;;;14.66;69.37;100322.94;4949359;28;119724;-73
2022/09/30 05:19:31;;;;;;;;;;;;;;;14.66;69.73;100320.19;4952019;28;120277;-73
2022/09/30 05:21:57;;;;;;;;;;;;;;;14.66;69.52;100329.22;4949777;28;120115;-73
2022/09/30 05:24:23;;;;;;;;;;;;;;;14.66;69.99;100323.72;4950130;28;119529;-73
2022/09/30 05:26:48;;;;;;;;;;;;;;;14.66;69.66;100320.94;4945535;28;121157;-73
2022/09/30 05:29:14;;;;;;;;;;;;;;;14.65;69.27;100319.44;4954345;28;119274;-74
2022/09/30 05:31:41;;;;;;;;;;;;;;;14.66;69.55;100318.19;4949757;28;119885;-73
2022/09/30 05:34:06;;;;;;;;;;;;;;;14.67;69.92;100313.44;4951028;28;119507;-73
2022/09/30 05:36:32;;;;;;;;;;;;;;;14.67;69.50;100313.44;4934431;28;120050;-73
2022/09/30 05:39:01;;;;;;;;;;;;;;;14.67;69.38;100308.69;4939500;28;119510;-73
2022/09/30 05:41:26;;;;;;;;;;;;;;;14.67;69.44;100313.44;4948670;28;120045;-73
2022/09/30 05:43:52;;;;;;;;;;;;;;;14.66;69.09;100315.44;4935690;28;119487;-73
2022/09/30 05:46:18;;;;;;;;;;;;;;;14.66;69.32;100311.91;4934852;28;121867;-73
2022/09/30 05:48:44;;;;;;;;;;;;;;;14.67;69.34;100321.72;4949249;28;120022;-73
2022/09/30 05:51:10;;;;;;;;;;;;;;;14.67;69.09;100319.72;4937898;28;119741;-73
2022/09/30 05:53:40;;;;;;;;;;;;;;;14.68;69.63;100321.25;4933952;28;119453;-73
2022/09/30 05:56:06;;;;;;;;;;;;;;;14.70;69.24;100329.78;4950701;28;119592;-73
2022/09/30 05:58:32;;;;;;;;;;;;;;;14.72;69.37;100332.06;4949871;28;119854;-73
2022/09/30 06:01:05;;;;;;;;;;;;;;;14.72;69.21;100337.59;4941356;28;120000;-73
2022/09/30 06:03:30;;;;;;;;;;;;;;;14.71;69.22;100336.81;4945487;28;120078;-73
2022/09/30 06:05:56;;;;;;;;;;;;;;;14.72;69.40;100332.81;4945090;28;119861;-74
2022/09/30 06:08:25;;;;;;;;;;;;;;;14.75;69.23;100333.84;4951108;28;120209;-73
2022/09/30 06:10:51;;;;;;;;;;;;;;;14.78;69.52;100334.88;4949773;28;119614;-74
2022/09/30 06:13:48;;;;;;;;;;;;;;;14.78;68.95;100332.88;4944627;28;120408;-74
2022/09/30 06:16:14;;;;;;;;;;;;;;;14.79;69.03;100328.88;4944239;28;119784;-74
2022/09/30 06:18:46;;;;;;;;;;;;;;;14.80;69.04;100337.91;4946414;28;119909;-74
2022/09/30 06:21:14;;;;;;;;;;;;;;;14.81;69.26;100333.91;4943557;28;119934;-74
2022/09/30 06:23:39;;;;;;;;;;;;;;;14.82;68.92;100340.94;4944711;28;119357;-74
2022/09/30 06:26:07;;;;;;;;;;;;;;;14.81;69.11;100334.66;4945412;28;120838;-73
2022/09/30 06:28:35;;;;;;;;;;;;;;;14.82;68.89;100346.44;4928592;28;121932;-74
2022/09/30 06:31:01;;;;;;;;;;;;;;;14.82;68.91;100340.94;4940612;28;119992;-74
2022/09/30 06:33:27;;;;;;;;;;;;;;;14.84;68.93;100349.47;4924700;28;119759;-74
2022/09/30 06:35:53;;;;;;;;;;;;;;;14.82;68.94;100358.25;4948801;28;119718;-74
2022/09/30 06:38:20;;;;;;;;;;;;;;;14.83;68.56;100359.00;4943448;28;119571;-73
2022/09/30 06:41:03;;;;;;;;;;;;;;;14.84;68.92;100355.75;4941702;28;119619;-74
2022/09/30 06:43:32;;;;;;;;;;;;;;;14.85;68.41;100356.53;4943607;28;120095;-74
2022/09/30 06:45:57;;;;;;;;;;;;;;;14.86;68.98;100358.03;4926274;28;119839;-73
2022/09/30 06:48:23;;;;;;;;;;;;;;;14.88;68.83;100361.81;4926927;28;120214;-73
2022/09/30 06:50:50;;;;;;;;;;;;;;;14.90;68.92;100364.09;4940060;28;120068;-74
2022/09/30 06:53:15;;;;;;;;;;;;;;;14.92;68.98;100364.38;4943417;28;120199;-74
2022/09/30 06:55:42;;;;;;;;;;;;;;;14.94;68.86;100370.94;4944690;28;120645;-74
2022/09/30 06:58:11;;;;;;;;;;;;;;;14.96;68.63;100379.50;4941349;28;119858;-73
2022/09/30 07:00:37;;;;;;;;;;;;;;;14.98;68.85;100377.00;4943755;28;119793;-73
2022/09/30 07:03:17;;;;;;;;;;;;;;;15.00;68.82;100379.28;4942222;28;119924;-73
2022/09/30 07:05:43;;;;;;;;;;;;;;;15.03;68.83;100384.56;4940662;28;122032;-73
2022/09/30 07:08:09;;;;;;;;;;;;;;;15.09;68.96;100386.63;4942530;28;119920;-73
2022/09/30 07:10:35;;;;;;;;;;;;;;;15.12;69.00;100378.09;4944821;28;119505;-73
2022/09/30 07:13:01;;;;;;;;;;;;;;;15.16;68.72;100381.44;4976694;28;122422;-73
2022/09/30 07:15:27;;;;;;;;;;;;;;;15.17;68.55;100385.72;4944229;28;119526;-73
2022/09/30 07:17:55;;;;;;;;;;;;;;;15.19;68.87;100385.97;4949528;28;120106;-73
2022/09/30 07:20:21;;;;;;;;;;;;;;;15.22;68.52;100385.00;4945485;28;120377;-73
2022/09/30 07:22:46;;;;;;;;;;;;;;;15.26;68.47;100379.25;4945258;28;119533;-73
2022/09/30 07:25:13;;;;;;;;;;;;;;;15.29;68.33;100383.78;4944220;28;120402;-74
2022/09/30 07:27:40;;;;;;;;;;;;;;;15.31;68.16;100382.06;4945370;28;119971;-73
2022/09/30 07:30:06;;;;;;;;;;;;;;;15.33;68.29;100376.78;4944740;28;119994;-73
2022/09/30 07:32:32;;;;;;;;;;;;;;;15.41;68.44;100387.41;4945335;28;120054;-73
2022/09/30 07:34:57;;;;;;;;;;;;;;;15.48;68.39;100387.72;4944725;28;119670;-73
2022/09/30 07:37:24;;;;;;;;;;;;;;;15.55;68.32;100390.03;4944356;28;120738;-74
2022/09/30 07:40:05;;;;;;;;;;;;;;;15.62;68.22;100394.41;4949045;28;120003;-73
2022/09/30 07:42:31;;;;;;;;;;;;;;;15.68;68.13;100399.94;4944718;28;121246;-74
2022/09/30 07:44:57;;;;;;;;;;;;;;;15.70;68.05;100386.38;4944976;28;120493;-74
2022/09/30 07:47:43;;;;;;;;;;;;;;;15.74;67.90;100389.69;4947560;28;119557;-74
2022/09/30 07:50:14;;;;;;;;;;;;;;;15.74;68.03;100390.44;4930034;28;120366;-74
2022/09/30 07:52:39;;;;;;;;;;;;;;;15.77;67.85;100394.97;4962405;28;120049;-73
2022/09/30 07:55:05;;;;;;;;;;;;;;;15.81;68.00;100394.75;4960892;28;119766;-74
2022/09/30 07:57:31;;;;;;;;;;;;;;;15.88;67.98;100388.78;4945574;28;120018;-73
2022/09/30 08:00:14;;;;;;;;;;;;;;;15.94;67.72;100387.56;4959593;28;119825;-73
2022/09/30 08:02:40;;;;;;;;;;;;;;;16.02;67.78;100393.38;4966480;28;119701;-73
2022/09/30 08:05:06;;;;;;;;;;;;;;;16.09;67.83;100392.13;4945279;28;121566;-74
2022/09/30 08:07:31;;;;;;;;;;;;;;;16.20;67.60;100392.97;4946233;28;120062;-73
2022/09/30 08:09:57;;;;;;;;;;;;;;;16.28;67.77;100388.47;4962897;28;120138;-73
2022/09/30 08:12:22;;;;;;;;;;;;;;;16.36;67.21;100393.53;4951904;28;120155;-74
2022/09/30 08:14:48;;;;;;;;;;;;;;;16.44;67.26;100392.56;4943172;28;120034;-74
2022/09/30 08:17:14;;;;;;;;;;;;;;;16.50;66.83;100398.09;4945611;28;119774;-73
2022/09/30 08:19:42;;;;;;;;;;;;;;;16.56;66.36;100396.13;4945314;28;119505;-74
2022/09/30 08:22:09;;;;;;;;;;;;;;;16.54;66.30;100399.38;4944472;28;119970;-74
2022/09/30 08:24:34;;;;;;;;;;;;;;;16.49;65.94;100396.59;4948261;28;119928;-74
2022/09/30 08:27:00;;;;;;;;;;;;;;;16.46;65.85;100401.13;4945242;28;119684;-74
2022/09/30 08:29:28;;;;;;;;;;;;;;;16.46;65.74;100398.34;4942941;28;120169;-73
2022/09/30 08:31:54;;;;;;;;;;;;;;;16.50;65.71;100404.41;4944557;28;119914;-73
2022/09/30 08:34:20;;;;;;;;;;;;;;;16.57;65.85;100403.94;4943231;28;120058;-74
2022/09/30 08:36:46;;;;;;;;;;;;;;;16.65;65.50;100401.44;4948108;28;120011;-74
2022/09/30 08:39:11;;;;;;;;;;;;;;;16.70;65.29;100408.28;4930370;28;121953;-74
2022/09/30 08:42:12;;;;;;;;;;;;;;;16.76;65.29;100404.25;4943007;28;119983;-73
2022/09/30 08:44:45;;;;;;;;;;;;;;;16.83;65.16;100411.34;4950517;28;119841;-73
2022/09/30 08:47:19;;;;;;;;;;;;;;;16.83;65.05;100409.34;4928153;28;119555;-73
2022/09/30 08:49:52;;;;;;;;;;;;;;;16.91;65.30;100414.38;4947275;28;120238;-74
2022/09/30 08:52:20;;;;;;;;;;;;;;;16.97;65.08;100424.22;4944971;28;120301;-74
2022/09/30 08:54:47;;;;;;;;;;;;;;;17.05;64.81;100419.72;4930322;28;120203;-73
2022/09/30 08:57:16;;;;;;;;;;;;;;;17.18;64.88;100416.44;4944822;28;120167;-74
2022/09/30 08:59:45;;;;;;;;;;;;;;;17.30;64.25;100422.75;4944051;28;120594;-74
2022/09/30 09:02:26;;;;;;;;;;;;;;;17.39;64.29;100419.72;4944126;28;119831;-74
2022/09/30 09:04:52;;;;;;;;;;;;;;;17.45;64.22;100424.00;4927081;28;120649;-73
2022/09/30 09:07:26;;;;;;;;;;;;;;;17.44;63.85;100424.50;4947276;28;119996;-74
2022/09/30 09:09:52;;;;;;;;;;;;;;;17.45;63.76;100432.31;4942497;28;119634;-74
2022/09/30 09:12:43;;;;;;;;;;;;;;;17.41;63.35;100431.06;4944110;28;120248;-74
2022/09/30 09:15:24;;;;;;;;;;;;;;;17.31;63.07;100425.03;4945552;28;120083;-73
2022/09/30 09:18:00;;;;;;;;;;;;;;;17.28;62.86;100426.03;4947807;28;119770;-74
2022/09/30 09:20:30;;;;;;;;;;;;;;;17.31;63.39;100427.03;4946638;28;120518;-74
2022/09/30 09:23:04;;;;;;;;;;;;;;;17.32;63.29;100429.31;4948051;28;120122;-73
2022/09/30 09:25:36;;;;;;;;;;;;;;;17.35;63.33;100428.31;4945993;28;119991;-73
2022/09/30 09:28:04;;;;;;;;;;;;;;;17.41;63.35;100425.53;4946121;28;120335;-73
2022/09/30 09:30:42;;;;;;;;;;;;;;;17.46;63.27;100424.75;4949403;28;120805;-74
2022/09/30 09:33:20;;;;;;;;;;;;;;;17.49;63.08;100429.28;4946063;28;119845;-74
2022/09/30 09:35:45;;;;;;;;;;;;;;;17.53;62.95;100429.81;4938595;28;119630;-73
2022/09/30 09:38:24;;;;;;;;;;;;;;;17.62;63.23;100424.00;4948804;28;120992;-73
2022/09/30 09:41:29;;;;;;;11.95;5.75;;;;;;;17.81;64.56;100427.06;4951815;28;120044;-73
2022/09/30 09:44:01;;;;;;;8.35;4.53;;;;;;;17.85;63.47;100426.78;4951592;28;120007;-74
2022/09/30 09:46:38;;;;;;;37.17;5.90;;;;;;;17.74;62.96;100424.78;4949620;28;120010;-74
2022/09/30 09:49:26;;;;;;;39.75;6.68;;;;;;;17.66;63.22;100423.75;4949219;28;120159;-74
2022/09/30 09:51:58;;;;;;;23.05;5.65;;;;;;;17.64;63.23;100418.72;4947838;28;119426;-74
2022/09/30 09:54:30;;;;;;;13.32;4.43;;;;;;;17.68;63.38;100418.47;4989791;28;119985;-74
2022/09/30 09:57:05;;;;;;;12.73;4.72;;;;;;;17.68;62.74;100412.94;4951395;28;119958;-74
2022/09/30 09:59:31;;;;;;;10.35;4.68;;;;;;;17.63;62.56;100422.00;4950452;28;120871;-74
2022/09/30 10:01:59;;;;;;;21.42;4.57;;;;;;;17.56;62.63;100428.81;4951990;28;121103;-74
2022/09/30 10:04:28;;;;;;;49.78;6.65;;;;;;;17.56;62.70;100423.25;4982754;28;119661;-74
2022/09/30 10:07:11;;;;;;;43.65;6.43;;;;;;;17.55;63.15;100429.31;4936650;28;121657;-74
2022/09/30 10:09:43;;;;;;;40.78;5.63;;;;;;;17.61;63.17;100422.50;4948749;28;119668;-74
2022/09/30 10:12:12;;;;;;;42.38;6.18;;;;;;;17.73;63.85;100428.81;4952605;28;119969;-74
2022/09/30 10:14:45;;;;;;;30.25;5.47;;;;;;;17.78;63.84;100433.63;4949470;28;119657;-74
2022/09/30 10:17:25;;;;;;;50.10;4.73;;;;;;;17.75;63.34;100429.84;4953683;28;120973;-74
2022/09/30 10:19:56;;;;;;;5.80;3.20;;;;;;;17.76;63.42;100438.91;4954886;28;120869;-74
2022/09/30 10:22:30;;;;;;;8.80;3.33;;;;;;;17.76;63.24;100436.91;4950257;28;120454;-74
2022/09/30 10:25:14;;;;;;;38.03;4.32;;;;;;;17.76;63.28;100431.34;4950704;28;119568;-74
2022/09/30 10:27:50;;;;;;;44.20;4.00;;;;;;;17.76;63.40;100436.91;4944773;28;119959;-74
2022/09/30 10:30:44;;;;;;;55.58;4.93;;;;;;;17.81;63.35;100445.72;4934772;28;120613;-74
2022/09/30 10:33:25;;;;;;;43.20;3.58;;;;;;;17.91;63.25;100442.16;4938182;28;119728;-74
2022/09/30 10:36:05;;;;;;;3.70;2.40;;;;;;;18.01;62.46;100437.13;4946149;28;119558;-74
2022/09/30 10:38:33;;;;;;;16.65;3.25;;;;;;;18.24;62.26;100446.91;4944194;28;119529;-74
2022/09/30 10:41:06;;;;;;;22.98;3.30;;;;;;;18.39;61.11;100441.03;4951739;28;119750;-74
2022/09/30 10:43:43;;;;;;;45.97;3.70;;;;;;;18.51;59.68;100441.75;4942414;28;120776;-74
2022/09/30 10:46:09;;;;;;;39.13;3.60;;;;;;;18.56;59.28;100427.09;4944392;28;120208;-74
2022/09/30 10:48:37;;;;;;;41.25;3.13;;;;;;;18.64;59.28;100428.84;4960065;28;120050;-74
2022/09/30 10:51:04;;;;;;;13.60;2.60;;;;;;;18.67;60.94;100427.81;4937603;28;119655;-74
2022/09/30 10:53:34;;;;;;;3.33;1.90;;;;;;;18.94;61.09;100436.53;4941130;28;120219;-74
2022/09/30 10:56:00;;;;;;;60.28;4.85;;;;;;;19.14;59.45;100432.59;4924287;28;120154;-74
2022/09/30 10:58:41;;;;;;;16.58;2.60;;;;;;;19.22;57.26;100425.97;4950951;28;121077;-74
2022/09/30 11:01:24;;;;;;;40.05;4.38;;;;;;;19.13;57.73;100434.63;4954884;28;120148;-74
2022/09/30 11:04:07;;;;;;;17.23;3.17;;;;;;;18.88;58.60;100439.31;4951232;28;119512;-74
2022/09/30 11:06:37;;;;;;;18.83;3.47;;;;;;;18.75;58.86;100433.59;4935173;28;119575;-74
2022/09/30 11:09:28;;;;;;;21.60;6.70;;;;;;;18.60;59.37;100433.13;4951368;28;119912;-74
2022/09/30 11:12:04;;;;;;;17.95;7.05;;;;;;;18.41;59.24;100439.25;4951165;28;120570;-74
2022/09/30 11:15:05;;;;;;;25.17;5.95;;;;;;;18.29;59.54;100437.78;4949394;28;119745;-74
2022/09/30 11:17:39;;;;;;;21.23;2.60;;;;;;;18.29;59.67;100435.03;4918914;28;120522;-74
2022/09/30 11:20:39;;;;;;;24.38;4.78;;;;;;;18.34;60.07;100439.03;4955492;28;120892;-74
2022/09/30 11:23:16;;;;;;;25.60;9.10;;;;;;;18.39;60.22;100430.69;4949257;28;119768;-74
2022/09/30 11:25:56;;;;;;;6.03;2.40;;;;;;;18.43;59.05;100424.84;4956084;28;119721;-74
2022/09/30 11:28:37;;;;;;;13.32;2.85;;;;;;;18.42;58.32;100426.88;4951369;28;119609;-74
2022/09/30 11:31:33;;;;;;;46.30;5.47;;;;;;;18.39;58.87;100430.69;4951249;28;120133;-74
2022/09/30 11:34:17;;;;;;;10.57;2.13;;;;;;;18.39;58.92;100427.91;4952753;28;120173;-74
2022/09/30 11:37:04;;;;;;;31.67;8.10;;;;;;;18.33;58.82;100427.19;4950317;28;120079;-74
2022/09/30 11:39:56;;;;;;;6.75;3.20;;;;;;;18.26;59.34;100419.38;4948457;28;120806;-74
2022/09/30 11:42:40;;;;;;;32.50;13.88;;;;;;;18.34;59.97;100420.34;4951082;28;120311;-74
2022/09/30 11:45:24;;;;;;;29.80;11.73;;;;;;;18.34;59.58;100417.56;4948869;28;119719;-74
2022/09/30 11:48:11;;;;;;;39.05;15.65;;;;;;;18.27;59.59;100417.34;4951632;28;120674;-74
2022/09/30 11:50:51;;;;;;;27.25;9.80;;;;;;;18.16;59.68;100409.81;4934484;28;120249;-74
2022/09/30 11:53:32;;;;;;;13.93;3.38;;;;;;;18.09;59.55;100418.66;4954812;28;119497;-74
2022/09/30 11:56:19;;;;;;;20.52;4.47;;;;;;;18.00;59.73;100418.97;4948816;28;120310;-74
2022/09/30 11:58:49;;;;;;;42.72;4.22;;;;;;;17.94;60.31;100415.41;4937484;28;120722;-74
2022/09/30 12:01:21;;;;;;;14.02;3.75;;;;;;;17.89;60.20;100416.94;4957047;28;119853;-74
2022/09/30 12:04:08;;;;;;;27.48;3.42;;;;;;;17.82;61.00;100417.47;4952946;28;120053;-74
2022/09/30 12:07:08;;;;;;;9.45;1.92;;;;;;;17.76;61.39;100416.72;4938083;28;119608;-74
2022/09/30 12:09:44;;;;;;;24.30;3.45;;;;;;;17.73;61.04;100426.78;4920568;28;119680;-73
2022/09/30 12:12:13;;;;;;;20.07;3.83;;;;;;;17.65;61.60;100414.69;4958700;28;120155;-73
2022/09/30 12:14:48;;;;;;;46.10;16.33;;;;;;;17.76;61.92;100425.81;4948341;28;120065;-73
2022/09/30 12:17:44;;;;;;;35.13;13.75;;;;;;;17.78;62.17;100417.72;4953673;28;119915;-73
2022/09/30 12:20:23;;;;;;;12.13;2.65;;;;;;;17.78;61.78;100417.72;4954322;28;119997;-74
2022/09/30 12:23:00;;;;;;;25.08;6.50;;;;;;;17.83;61.56;100407.88;4954061;28;119516;-73
2022/09/30 12:25:32;;;;;;;36.97;8.35;;;;;;;17.89;61.84;100416.19;4906623;28;120966;-74
2022/09/30 12:31:19;;;;;;;25.05;5.93;;;;;;;17.92;61.56;100409.63;4952034;28;120079;-73
2022/09/30 12:34:12;;;;;;;19.30;6.72;;;;;;;17.89;61.55;100396.75;4955021;28;120219;-75
2022/09/30 12:36:59;;;;;;;12.63;3.35;;;;;;;17.95;60.54;100411.38;4954853;28;119951;-73
2022/09/30 12:40:12;;;;;;;19.73;6.63;;;;;;;17.92;60.75;100410.38;4957405;28;120524;-73